sensor_id;sensor_type;location;lat;lon;timestamp;pressure;altitude;pressure_sealevel;temperature;humidity
929;BME280;451;47.988;7.842;2022-12-18T00:04:46;99591.72;;;-6.54;100.00
929;BME280;451;47.988;7.842;2022-12-18T00:13:50;99565.22;;;-5.87;100.00
929;BME280;451;47.988;7.842;2022-12-18T00:22:53;99572.81;;;-5.82;100.00
929;BME280;451;47.988;7.842;2022-12-18T00:31:54;99569.72;;;-6.26;100.00
929;BME280;451;47.988;7.842;2022-12-18T00:40:56;99577.25;;;-5.58;100.00
929;BME280;451;47.988;7.842;2022-12-18T00:49:58;99575.06;;;-5.72;100.00
929;BME280;451;47.988;7.842;2022-12-18T00:59:00;99387.47;;;-6.96;100.00
929;BME280;451;47.988;7.842;2022-12-18T01:08:01;99505.53;;;-6.49;100.00
929;BME280;451;47.988;7.842;2022-12-18T01:17:04;99568.13;;;-5.68;100.00
929;BME280;451;47.988;7.842;2022-12-18T01:26:11;99483.16;;;-6.41;100.00
929;BME280;451;47.988;7.842;2022-12-18T01:35:13;99609.53;;;-5.83;100.00
929;BME280;451;47.988;7.842;2022-12-18T01:53:54;99288.31;;;-7.46;100.00
929;BME280;451;47.988;7.842;2022-12-18T02:02:56;99564.19;;;-5.49;100.00
929;BME280;451;47.988;7.842;2022-12-18T02:30:20;99618.25;;;-5.29;100.00
929;BME280;451;47.988;7.842;2022-12-18T02:39:25;99605.50;;;-5.61;100.00
929;BME280;451;47.988;7.842;2022-12-18T02:48:38;99591.63;;;-6.16;100.00
929;BME280;451;47.988;7.842;2022-12-18T02:57:58;99388.66;;;-6.76;100.00
929;BME280;451;47.988;7.842;2022-12-18T03:07:15;99523.38;;;-6.14;100.00
929;BME280;451;47.988;7.842;2022-12-18T03:16:29;99667.94;;;-5.97;100.00
929;BME280;451;47.988;7.842;2022-12-18T03:25:34;99613.69;;;-6.12;100.00
929;BME280;451;47.988;7.842;2022-12-18T03:34:40;99523.75;;;-6.97;100.00
929;BME280;451;47.988;7.842;2022-12-18T03:44:11;99621.78;;;-6.28;100.00
929;BME280;451;47.988;7.842;2022-12-18T04:02:30;99459.88;;;-7.32;100.00
929;BME280;451;47.988;7.842;2022-12-18T04:11:36;99606.84;;;-6.11;100.00
929;BME280;451;47.988;7.842;2022-12-18T04:20:40;99612.63;;;-6.74;100.00
929;BME280;451;47.988;7.842;2022-12-18T04:29:45;99562.25;;;-7.44;100.00
929;BME280;451;47.988;7.842;2022-12-18T04:38:47;99602.06;;;-7.79;100.00
929;BME280;451;47.988;7.842;2022-12-18T04:47:51;99661.63;;;-7.80;100.00
929;BME280;451;47.988;7.842;2022-12-18T04:56:53;99359.00;;;-9.59;100.00
929;BME280;451;47.988;7.842;2022-12-18T05:05:54;99613.47;;;-7.98;100.00
929;BME280;451;47.988;7.842;2022-12-18T05:14:56;99603.91;;;-7.87;100.00
929;BME280;451;47.988;7.842;2022-12-18T05:23:58;99219.19;;;-10.12;100.00
929;BME280;451;47.988;7.842;2022-12-18T05:33:00;99592.75;;;-8.27;100.00
929;BME280;451;47.988;7.842;2022-12-18T05:42:01;99534.66;;;-8.11;100.00
929;BME280;451;47.988;7.842;2022-12-18T05:51:08;99289.28;;;-9.99;100.00
929;BME280;451;47.988;7.842;2022-12-18T06:00:11;99603.09;;;-8.33;100.00
929;BME280;451;47.988;7.842;2022-12-18T06:09:16;99628.44;;;-8.27;100.00
929;BME280;451;47.988;7.842;2022-12-18T06:18:17;99560.97;;;-8.56;100.00
929;BME280;451;47.988;7.842;2022-12-18T06:27:19;99579.50;;;-8.46;100.00
929;BME280;451;47.988;7.842;2022-12-18T06:36:21;99561.63;;;-8.95;100.00
929;BME280;451;47.988;7.842;2022-12-18T06:45:30;99661.84;;;-7.92;100.00
929;BME280;451;47.988;7.842;2022-12-18T06:54:32;99669.88;;;-7.65;100.00
929;BME280;451;47.988;7.842;2022-12-18T07:03:34;99684.53;;;-7.77;100.00
929;BME280;451;47.988;7.842;2022-12-18T07:12:35;99676.66;;;-7.64;100.00
929;BME280;451;47.988;7.842;2022-12-18T07:21:37;99686.97;;;-7.70;100.00
929;BME280;451;47.988;7.842;2022-12-18T07:30:39;99699.22;;;-7.91;100.00
929;BME280;451;47.988;7.842;2022-12-18T07:39:40;99719.41;;;-7.76;100.00
929;BME280;451;47.988;7.842;2022-12-18T07:48:43;99540.88;;;-9.30;100.00
929;BME280;451;47.988;7.842;2022-12-18T07:57:45;99797.56;;;-7.71;100.00
929;BME280;451;47.988;7.842;2022-12-18T08:06:46;99755.31;;;-7.39;100.00
929;BME280;451;47.988;7.842;2022-12-18T08:15:58;99747.34;;;-7.22;100.00
929;BME280;451;47.988;7.842;2022-12-18T08:25:00;99646.41;;;-7.86;100.00
929;BME280;451;47.988;7.842;2022-12-18T08:34:01;99726.44;;;-6.98;100.00
929;BME280;451;47.988;7.842;2022-12-18T08:43:03;99698.56;;;-6.30;100.00
929;BME280;451;47.988;7.842;2022-12-18T08:52:23;99681.06;;;-6.11;100.00
929;BME280;451;47.988;7.842;2022-12-18T09:01:25;99679.81;;;-5.95;100.00
929;BME280;451;47.988;7.842;2022-12-18T09:10:27;99458.50;;;-6.76;100.00
929;BME280;451;47.988;7.842;2022-12-18T09:19:29;99591.50;;;-6.11;100.00
929;BME280;451;47.988;7.842;2022-12-18T09:28:31;99689.34;;;-4.75;100.00
929;BME280;451;47.988;7.842;2022-12-18T09:37:32;99677.88;;;-4.09;99.34
929;BME280;451;47.988;7.842;2022-12-18T09:46:38;99964.66;;;-5.14;100.00
929;BME280;451;47.988;7.842;2022-12-18T09:55:43;99412.84;;;-6.25;100.00
929;BME280;451;47.988;7.842;2022-12-18T10:05:09;99460.59;;;-5.39;100.00
929;BME280;451;47.988;7.842;2022-12-18T10:32:47;99672.38;;;-2.11;97.06
929;BME280;451;47.988;7.842;2022-12-18T10:41:49;99635.81;;;-1.98;99.38
929;BME280;451;47.988;7.842;2022-12-18T10:50:51;99635.50;;;-1.50;100.00
929;BME280;451;47.988;7.842;2022-12-18T10:59:56;99566.91;;;-2.56;100.00
929;BME280;451;47.988;7.842;2022-12-18T11:09:05;99617.16;;;-1.63;100.00
929;BME280;451;47.988;7.842;2022-12-18T11:18:37;99624.88;;;-1.83;100.00
929;BME280;451;47.988;7.842;2022-12-18T11:27:39;99632.97;;;-2.13;100.00
929;BME280;451;47.988;7.842;2022-12-18T11:36:46;99635.13;;;-2.24;100.00
929;BME280;451;47.988;7.842;2022-12-18T11:45:53;99627.19;;;-1.97;100.00
929;BME280;451;47.988;7.842;2022-12-18T11:54:58;99592.13;;;-2.22;100.00
929;BME280;451;47.988;7.842;2022-12-18T12:13:24;99389.13;;;-2.70;100.00
929;BME280;451;47.988;7.842;2022-12-18T12:41:22;99596.66;;;-1.66;100.00
929;BME280;451;47.988;7.842;2022-12-18T12:50:45;99470.47;;;-1.13;100.00
929;BME280;451;47.988;7.842;2022-12-18T13:00:00;99588.28;;;-0.06;100.00
929;BME280;451;47.988;7.842;2022-12-18T13:09:05;99615.44;;;-0.14;100.00
929;BME280;451;47.988;7.842;2022-12-18T13:36:45;99558.06;;;-0.21;100.00
929;BME280;451;47.988;7.842;2022-12-18T13:55:10;99435.53;;;-0.67;99.56
929;BME280;451;47.988;7.842;2022-12-18T14:04:31;99319.69;;;-1.95;93.55
929;BME280;451;47.988;7.842;2022-12-18T14:13:37;99545.44;;;-0.10;96.97
929;BME280;451;47.988;7.842;2022-12-18T14:22:48;99544.66;;;-0.63;99.02
929;BME280;451;47.988;7.842;2022-12-18T14:32:10;99518.84;;;0.21;95.39
929;BME280;451;47.988;7.842;2022-12-18T14:41:15;99523.94;;;-0.45;98.06
929;BME280;451;47.988;7.842;2022-12-18T14:50:17;99349.88;;;-2.17;100.00
929;BME280;451;47.988;7.842;2022-12-18T14:59:21;99555.69;;;-0.08;100.00
929;BME280;451;47.988;7.842;2022-12-18T15:08:30;99561.31;;;-0.34;99.09
929;BME280;451;47.988;7.842;2022-12-18T15:17:35;99557.94;;;-0.36;97.01
929;BME280;451;47.988;7.842;2022-12-18T15:26:37;99389.25;;;-1.95;100.00
929;BME280;451;47.988;7.842;2022-12-18T15:35:39;99439.22;;;-1.99;100.00
929;BME280;451;47.988;7.842;2022-12-18T15:44:43;99429.06;;;-1.65;100.00
929;BME280;451;47.988;7.842;2022-12-18T15:53:46;99424.47;;;-1.58;100.00
929;BME280;451;47.988;7.842;2022-12-18T16:02:48;99584.03;;;-0.24;100.00
929;BME280;451;47.988;7.842;2022-12-18T16:11:49;99584.06;;;-0.43;100.00
929;BME280;451;47.988;7.842;2022-12-18T16:20:52;99380.56;;;-1.20;100.00
929;BME280;451;47.988;7.842;2022-12-18T16:29:54;99123.50;;;-3.31;100.00
929;BME280;451;47.988;7.842;2022-12-18T16:38:55;99490.34;;;-0.79;100.00
929;BME280;451;47.988;7.842;2022-12-18T16:47:57;99567.69;;;-0.24;100.00
929;BME280;451;47.988;7.842;2022-12-18T16:56:59;99513.19;;;-0.89;100.00
929;BME280;451;47.988;7.842;2022-12-18T17:06:05;99499.16;;;-0.83;100.00
929;BME280;451;47.988;7.842;2022-12-18T17:15:07;99510.78;;;-0.93;100.00
929;BME280;451;47.988;7.842;2022-12-18T17:24:09;99541.41;;;-0.15;100.00
929;BME280;451;47.988;7.842;2022-12-18T17:33:11;99426.69;;;-1.14;100.00
929;BME280;451;47.988;7.842;2022-12-18T17:42:13;99433.91;;;-1.04;100.00
929;BME280;451;47.988;7.842;2022-12-18T17:51:16;99511.47;;;-0.36;100.00
929;BME280;451;47.988;7.842;2022-12-18T18:00:19;99520.53;;;-0.28;100.00
929;BME280;451;47.988;7.842;2022-12-18T18:09:21;99407.19;;;-1.75;100.00
929;BME280;451;47.988;7.842;2022-12-18T18:18:23;99502.47;;;-0.81;100.00
929;BME280;451;47.988;7.842;2022-12-18T18:27:26;99561.13;;;-0.49;100.00
929;BME280;451;47.988;7.842;2022-12-18T18:36:29;99515.13;;;-1.12;100.00
929;BME280;451;47.988;7.842;2022-12-18T18:45:31;99494.75;;;-1.00;100.00
929;BME280;451;47.988;7.842;2022-12-18T18:54:32;99448.59;;;-0.70;100.00
929;BME280;451;47.988;7.842;2022-12-18T19:03:35;99536.44;;;0.15;100.00
929;BME280;451;47.988;7.842;2022-12-18T19:12:38;99452.22;;;-0.39;100.00
929;BME280;451;47.988;7.842;2022-12-18T19:22:05;99500.38;;;-0.21;100.00
929;BME280;451;47.988;7.842;2022-12-18T19:31:10;99487.13;;;0.02;100.00
929;BME280;451;47.988;7.842;2022-12-18T19:40:14;99462.41;;;-0.88;100.00
929;BME280;451;47.988;7.842;2022-12-18T19:49:16;99446.75;;;-0.68;100.00
929;BME280;451;47.988;7.842;2022-12-18T19:58:17;99449.16;;;-0.13;100.00
929;BME280;451;47.988;7.842;2022-12-18T20:07:19;99473.81;;;0.10;100.00
929;BME280;451;47.988;7.842;2022-12-18T20:16:21;99332.75;;;-0.93;100.00
929;BME280;451;47.988;7.842;2022-12-18T20:25:23;99449.91;;;-0.11;100.00
929;BME280;451;47.988;7.842;2022-12-18T20:34:25;99345.25;;;-0.35;100.00
929;BME280;451;47.988;7.842;2022-12-18T20:43:29;99455.69;;;-0.23;100.00
929;BME280;451;47.988;7.842;2022-12-18T20:52:31;99192.03;;;-1.49;100.00
929;BME280;451;47.988;7.842;2022-12-18T21:01:33;99343.06;;;-0.10;100.00
929;BME280;451;47.988;7.842;2022-12-18T21:10:35;99498.06;;;0.71;100.00
929;BME280;451;47.988;7.842;2022-12-18T21:19:39;99408.44;;;0.08;100.00
929;BME280;451;47.988;7.842;2022-12-18T21:28:40;99443.63;;;0.10;100.00
929;BME280;451;47.988;7.842;2022-12-18T21:37:42;99467.56;;;-0.19;100.00
929;BME280;451;47.988;7.842;2022-12-18T21:46:47;99431.44;;;-0.54;100.00
929;BME280;451;47.988;7.842;2022-12-18T21:55:59;99467.28;;;-0.65;100.00
929;BME280;451;47.988;7.842;2022-12-18T22:05:02;99477.41;;;-0.10;100.00
929;BME280;451;47.988;7.842;2022-12-18T22:14:04;99412.41;;;-0.35;100.00
929;BME280;451;47.988;7.842;2022-12-18T22:23:06;99464.44;;;0.07;100.00
929;BME280;451;47.988;7.842;2022-12-18T22:32:12;99318.78;;;-0.72;100.00
929;BME280;451;47.988;7.842;2022-12-18T22:41:16;99310.59;;;-0.97;100.00
929;BME280;451;47.988;7.842;2022-12-18T22:50:18;99423.06;;;0.24;100.00
929;BME280;451;47.988;7.842;2022-12-18T22:59:21;99376.06;;;0.00;100.00
929;BME280;451;47.988;7.842;2022-12-18T23:08:23;99414.78;;;0.33;100.00
929;BME280;451;47.988;7.842;2022-12-18T23:17:25;99284.38;;;-0.39;100.00
929;BME280;451;47.988;7.842;2022-12-18T23:26:27;99331.63;;;-0.06;100.00
929;BME280;451;47.988;7.842;2022-12-18T23:35:28;99302.53;;;0.37;100.00
929;BME280;451;47.988;7.842;2022-12-18T23:44:31;99280.19;;;0.36;100.00
929;BME280;451;47.988;7.842;2022-12-18T23:53:33;99452.72;;;1.41;100.00
